Terminal Aerodrome Forecast
Issued by NWS North Platte, NE

Home | Current Version | Previous Version | Text Only | Print | Product List | Glossary On
Versions: 1 2 3 4 5 6 7 8 9 10 11 12 13 14 15
000
FTUS43 KLBF 281130
TAFVTN
TAF
KVTN 281130Z 2812/2912 19010KT P6SM SKC
     FM281500 20012KT P6SM FEW250
     FM282300 18011KT P6SM SCT100=

USA.gov is the U.S. government's official web portal to all federal, state and local government web resources and services.